createdAt,value
2023-03-17T00:00:53.972Z,65.61
2023-03-17T00:03:29.415Z,65.19
2023-03-17T00:06:01.452Z,65.28
2023-03-17T00:08:34.274Z,65.10
2023-03-17T00:11:04.477Z,65.29
2023-03-17T00:13:34.110Z,65.57
2023-03-17T00:16:07.572Z,65.07
2023-03-17T00:18:40.312Z,65.23
2023-03-17T00:21:14.847Z,65.64
2023-03-17T00:23:46.373Z,65.77
2023-03-17T00:26:16.212Z,65.19
2023-03-17T00:28:46.213Z,65.01
2023-03-17T00:31:18.938Z,65.14
2023-03-17T00:33:54.123Z,65.59
2023-03-17T00:36:26.599Z,65.83
2023-03-17T00:38:57.367Z,65.31
2023-03-17T00:41:29.585Z,65.34
2023-03-17T00:43:59.359Z,65.47
2023-03-17T00:46:35.984Z,65.78
2023-03-17T00:51:46.008Z,65.33
2023-03-17T00:54:19.500Z,66.06
2023-03-17T00:56:50.930Z,65.51
2023-03-17T00:59:29.824Z,66.00
2023-03-17T01:02:00.412Z,65.82
2023-03-17T01:04:34.010Z,65.91
2023-03-17T01:07:04.204Z,66.08
2023-03-17T01:09:35.021Z,66.05
2023-03-17T01:12:04.705Z,66.10
2023-03-17T01:14:37.887Z,65.70
2023-03-17T01:17:12.879Z,65.79
2023-03-17T01:19:45.461Z,65.39
2023-03-17T01:22:15.502Z,65.12
2023-03-17T01:24:45.144Z,64.77
2023-03-17T01:27:16.117Z,64.91
2023-03-17T01:29:46.222Z,64.93
2023-03-17T01:32:16.360Z,64.93
2023-03-17T01:34:48.643Z,64.77
2023-03-17T01:37:18.277Z,64.17
2023-03-17T01:39:47.900Z,63.87
2023-03-17T01:42:17.706Z,63.73
2023-03-17T01:45:03.113Z,63.79
2023-03-17T01:47:33.239Z,63.36
2023-03-17T01:50:09.934Z,63.10
2023-03-17T01:52:41.577Z,63.47
2023-03-17T01:55:14.864Z,63.57
2023-03-17T01:57:50.855Z,63.87
2023-03-17T02:00:23.605Z,63.90
2023-03-17T02:02:57.444Z,63.74
2023-03-17T02:05:33.397Z,63.30
2023-03-17T02:08:03.224Z,64.18
2023-03-17T02:10:33.596Z,64.26
2023-03-17T02:13:05.885Z,64.61
2023-03-17T02:15:40.796Z,63.80
2023-03-17T02:18:11.705Z,63.88
2023-03-17T02:21:16.878Z,64.23
2023-03-17T02:23:49.905Z,64.53
2023-03-17T02:26:21.071Z,64.23
2023-03-17T02:28:50.720Z,64.20
2023-03-17T02:31:21.969Z,64.23
2023-03-17T02:33:54.299Z,64.25
2023-03-17T02:36:24.725Z,64.29
2023-03-17T02:38:57.602Z,64.02
2023-03-17T02:41:27.528Z,63.98
2023-03-17T02:43:57.179Z,63.97
2023-03-17T02:46:27.213Z,63.62
2023-03-17T02:48:57.793Z,63.62
2023-03-17T02:51:27.433Z,63.73
2023-03-17T02:53:59.710Z,63.87
2023-03-17T02:56:29.505Z,63.79
2023-03-17T02:58:59.132Z,63.90
2023-03-17T03:01:29.562Z,64.04
2023-03-17T03:03:59.364Z,64.20
2023-03-17T03:06:29.116Z,64.39
2023-03-17T03:09:01.427Z,64.71
2023-03-17T03:11:31.066Z,64.84
2023-03-17T03:14:00.701Z,65.09
2023-03-17T03:16:30.581Z,65.11
2023-03-17T03:19:00.226Z,64.76
2023-03-17T03:21:31.661Z,65.15
2023-03-17T03:24:04.113Z,65.09
2023-03-17T03:26:33.882Z,65.49
2023-03-17T03:29:03.580Z,65.06
2023-03-17T03:31:33.217Z,65.48
2023-03-17T03:34:02.847Z,64.92
2023-03-17T03:36:32.498Z,64.27
2023-03-17T03:39:04.713Z,64.03
2023-03-17T03:41:34.463Z,64.16
2023-03-17T03:44:04.143Z,63.65
2023-03-17T03:46:33.933Z,64.08
2023-03-17T03:49:03.651Z,64.32
2023-03-17T03:51:33.340Z,63.79
2023-03-17T03:54:06.346Z,63.77
2023-03-17T03:56:36.050Z,63.52
2023-03-17T03:59:06.228Z,63.20
2023-03-17T04:01:36.048Z,63.35
2023-03-17T04:04:05.828Z,63.54
2023-03-17T04:06:35.452Z,63.20
2023-03-17T04:09:09.286Z,63.52
2023-03-17T04:11:38.942Z,63.02
2023-03-17T04:14:09.119Z,63.04
2023-03-17T04:16:39.043Z,62.94
2023-03-17T04:19:09.898Z,63.71
2023-03-17T04:21:39.972Z,63.28
2023-03-17T04:24:12.657Z,63.27
2023-03-17T04:26:42.358Z,63.34
2023-03-17T04:29:15.696Z,63.60
2023-03-17T04:31:45.381Z,63.70
2023-03-17T04:34:18.744Z,63.62
2023-03-17T04:36:49.956Z,63.68
2023-03-17T04:39:22.301Z,63.01
2023-03-17T04:41:51.966Z,63.12
2023-03-17T04:44:21.626Z,63.49
2023-03-17T04:46:51.667Z,63.43
2023-03-17T04:49:21.981Z,63.31
2023-03-17T04:51:51.629Z,63.43
2023-03-17T04:54:24.130Z,63.31
2023-03-17T04:56:53.925Z,63.18
2023-03-17T04:59:23.593Z,62.58
2023-03-17T05:01:54.018Z,63.21
2023-03-17T05:04:31.070Z,63.94
2023-03-17T05:07:01.282Z,63.65
2023-03-17T05:09:33.599Z,64.11
2023-03-17T05:12:03.236Z,64.26
2023-03-17T05:14:33.233Z,64.14
2023-03-17T05:17:02.857Z,63.82
2023-03-17T05:19:32.473Z,64.59
2023-03-17T05:22:02.177Z,64.35
2023-03-17T05:24:34.448Z,64.22
2023-03-17T05:27:04.056Z,64.12
2023-03-17T05:29:33.807Z,64.55
2023-03-17T05:32:03.443Z,64.13
2023-03-17T05:34:33.609Z,64.47
2023-03-17T05:37:03.466Z,64.63
2023-03-17T05:39:36.031Z,63.52
2023-03-17T05:42:06.277Z,64.68
2023-03-17T05:44:36.249Z,64.40
2023-03-17T05:47:05.928Z,63.98
2023-03-17T05:49:35.763Z,63.54
2023-03-17T05:52:05.715Z,63.78
2023-03-17T05:54:38.203Z,63.56
2023-03-17T05:57:07.884Z,63.35
2023-03-17T05:59:37.570Z,63.16
2023-03-17T06:02:07.303Z,63.32
2023-03-17T06:04:37.019Z,62.97
2023-03-17T06:07:07.844Z,63.08
2023-03-17T06:09:40.141Z,62.76
2023-03-17T06:12:11.052Z,62.98
2023-03-17T06:14:40.778Z,63.18
2023-03-17T06:17:12.563Z,63.00
2023-03-17T06:19:42.776Z,62.43
2023-03-17T06:22:12.577Z,62.30
2023-03-17T06:24:44.794Z,61.77
2023-03-17T06:27:14.645Z,62.06
2023-03-17T06:29:44.257Z,61.71
2023-03-17T06:32:20.725Z,61.14
2023-03-17T06:34:51.909Z,61.20
2023-03-17T06:37:21.517Z,60.96
2023-03-17T06:39:53.900Z,60.59
2023-03-17T06:42:23.616Z,60.70
2023-03-17T06:44:53.970Z,60.82
2023-03-17T06:47:25.974Z,61.39
2023-03-17T06:49:56.329Z,60.93
2023-03-17T06:52:26.582Z,60.74
2023-03-17T06:54:58.785Z,60.22
2023-03-17T06:57:28.404Z,60.69
2023-03-17T06:59:58.037Z,60.19
2023-03-17T07:02:28.098Z,59.32
2023-03-17T07:04:58.270Z,59.23
2023-03-17T07:07:28.093Z,59.55
2023-03-17T07:10:00.376Z,58.28
2023-03-17T07:12:30.015Z,58.84
2023-03-17T07:15:00.174Z,58.55
2023-03-17T07:17:30.192Z,58.04
2023-03-17T07:20:00.203Z,58.96
2023-03-17T07:22:30.294Z,59.04
2023-03-17T07:25:02.620Z,58.91
2023-03-17T07:27:32.282Z,58.84
2023-03-17T07:30:04.437Z,58.45
2023-03-17T07:32:35.565Z,58.81
2023-03-17T07:35:05.272Z,58.97
2023-03-17T07:37:35.009Z,58.16
2023-03-17T07:40:09.283Z,58.50
2023-03-17T07:42:39.116Z,58.42
2023-03-17T07:45:10.320Z,58.00
2023-03-17T07:47:41.688Z,58.11
2023-03-17T07:50:12.441Z,58.39
2023-03-17T07:52:42.246Z,57.83
2023-03-17T07:55:15.990Z,58.10
2023-03-17T07:57:46.274Z,58.09
2023-03-17T08:00:17.651Z,58.07
2023-03-17T08:02:59.600Z,57.15
2023-03-17T08:05:37.082Z,57.23
2023-03-17T08:08:07.616Z,57.51
2023-03-17T08:10:39.904Z,56.48
2023-03-17T08:13:09.598Z,56.15
2023-03-17T08:15:39.484Z,56.41
2023-03-17T08:18:09.625Z,56.66
2023-03-17T08:20:39.452Z,57.18
2023-03-17T08:23:09.099Z,57.01
2023-03-17T08:25:41.423Z,56.31
2023-03-17T08:28:11.124Z,56.12
2023-03-17T08:30:41.837Z,56.23
2023-03-17T08:33:11.773Z,56.20
2023-03-17T08:35:43.752Z,55.72
2023-03-17T08:38:13.938Z,55.97
2023-03-17T08:40:46.194Z,55.58
2023-03-17T08:43:16.524Z,55.83
2023-03-17T08:45:46.245Z,55.87
2023-03-17T08:48:15.968Z,55.10
2023-03-17T08:50:46.065Z,56.36
2023-03-17T08:53:15.721Z,54.89
2023-03-17T08:55:47.942Z,55.10
2023-03-17T08:58:19.772Z,54.44
2023-03-17T09:00:50.126Z,54.85
2023-03-17T09:03:20.838Z,55.28
2023-03-17T09:05:51.590Z,55.23
2023-03-17T09:08:21.301Z,55.51
2023-03-17T09:10:54.376Z,55.73
2023-03-17T09:13:24.411Z,55.53
2023-03-17T09:15:54.384Z,54.59
2023-03-17T09:18:24.038Z,53.78
2023-03-17T09:20:53.716Z,54.36
2023-03-17T09:23:23.608Z,55.44
2023-03-17T09:25:55.978Z,55.05
2023-03-17T09:28:26.298Z,54.70
2023-03-17T09:31:01.410Z,55.34
2023-03-17T09:33:32.093Z,54.38
2023-03-17T09:36:02.217Z,55.24
2023-03-17T09:38:31.917Z,54.55
2023-03-17T09:41:26.201Z,55.45
2023-03-17T09:44:03.459Z,54.92
2023-03-17T09:46:47.283Z,54.88
2023-03-17T09:49:22.870Z,54.11
2023-03-17T09:51:53.309Z,53.79
2023-03-17T09:54:29.316Z,53.56
2023-03-17T09:57:09.399Z,53.31
2023-03-17T09:59:43.891Z,54.78
2023-03-17T10:02:21.329Z,54.24
2023-03-17T10:04:51.907Z,53.69
2023-03-17T10:07:27.274Z,52.57
2023-03-17T10:10:03.769Z,53.01
2023-03-17T10:12:46.250Z,53.16
2023-03-17T10:15:24.209Z,52.58
2023-03-17T10:17:54.751Z,52.27
2023-03-17T10:20:30.192Z,52.21
2023-03-17T10:23:04.304Z,51.46
2023-03-17T10:25:36.679Z,52.18
2023-03-17T10:28:15.093Z,52.63
2023-03-17T10:30:44.908Z,52.40
2023-03-17T10:33:14.918Z,52.58
2023-03-17T10:35:45.109Z,52.79
2023-03-17T10:38:18.999Z,53.19
2023-03-17T10:40:57.161Z,52.81
2023-03-17T10:43:32.377Z,52.92
2023-03-17T10:46:04.391Z,53.07
2023-03-17T10:48:39.149Z,50.98
2023-03-17T10:51:11.425Z,51.65
2023-03-17T10:53:43.455Z,51.27
2023-03-17T10:56:20.911Z,52.08
2023-03-17T10:58:55.582Z,51.38
2023-03-17T11:01:31.278Z,51.85
2023-03-17T11:04:02.831Z,50.81
2023-03-17T11:06:36.559Z,50.60
2023-03-17T11:09:12.552Z,51.05
2023-03-17T11:11:47.504Z,51.28
2023-03-17T11:14:22.405Z,51.29
2023-03-17T11:16:56.924Z,49.77
2023-03-17T11:19:41.195Z,49.81
2023-03-17T11:22:15.912Z,49.73
2023-03-17T11:24:59.766Z,50.12
2023-03-17T11:27:34.353Z,48.66
2023-03-17T11:30:28.002Z,49.27
2023-03-17T11:33:01.748Z,49.37
2023-03-17T11:35:53.245Z,49.40
2023-03-17T11:38:26.212Z,49.88
2023-03-17T11:41:35.797Z,49.45
2023-03-17T11:44:55.249Z,49.88
2023-03-17T11:47:42.887Z,49.77
2023-03-17T11:50:24.895Z,48.59
2023-03-17T11:53:13.270Z,49.61
2023-03-17T11:55:48.487Z,50.51
2023-03-17T11:58:28.742Z,51.06
2023-03-17T12:01:00.931Z,51.00
2023-03-17T12:03:40.449Z,49.25
2023-03-17T12:06:19.796Z,49.76
2023-03-17T12:08:53.553Z,49.27
2023-03-17T12:11:30.158Z,48.97
2023-03-17T12:14:04.917Z,49.76
2023-03-17T12:16:40.694Z,50.60
2023-03-17T12:19:20.703Z,49.87
2023-03-17T12:21:55.745Z,49.21
2023-03-17T12:24:34.486Z,49.48
2023-03-17T12:27:08.631Z,49.10
2023-03-17T12:29:47.482Z,49.32
2023-03-17T12:32:23.739Z,49.11
2023-03-17T12:34:59.733Z,49.78
2023-03-17T12:37:30.914Z,48.90
2023-03-17T12:40:07.208Z,47.86
2023-03-17T12:42:45.731Z,48.97
2023-03-17T12:45:37.327Z,47.72
2023-03-17T12:48:24.516Z,49.86
2023-03-17T12:51:22.734Z,48.54
2023-03-17T12:53:53.123Z,49.00
2023-03-17T12:56:27.447Z,49.59
2023-03-17T12:59:02.968Z,49.23
2023-03-17T13:01:36.098Z,49.44
2023-03-17T13:04:19.590Z,49.96
2023-03-17T13:07:02.806Z,48.91
2023-03-17T13:09:45.405Z,49.18
2023-03-17T13:12:53.730Z,49.10
2023-03-17T13:15:26.810Z,49.37
2023-03-17T13:18:33.494Z,48.23
2023-03-17T13:21:15.377Z,48.44
2023-03-17T13:23:49.758Z,48.87
2023-03-17T13:26:22.466Z,49.39
2023-03-17T13:28:53.734Z,48.75
2023-03-17T13:31:38.508Z,48.76
2023-03-17T13:34:19.529Z,48.80
2023-03-17T13:37:05.576Z,49.34
2023-03-17T13:40:00.028Z,48.90
2023-03-17T13:42:46.910Z,48.74
2023-03-17T13:45:28.619Z,49.22
2023-03-17T13:48:34.737Z,49.73
2023-03-17T13:51:15.303Z,49.20
2023-03-17T13:53:49.773Z,50.37
2023-03-17T13:56:27.970Z,48.69
2023-03-17T13:59:10.458Z,47.93
2023-03-17T14:01:44.040Z,48.89
2023-03-17T14:04:24.156Z,48.91
2023-03-17T14:06:57.283Z,49.25
2023-03-17T14:09:37.844Z,49.09
2023-03-17T14:12:16.065Z,49.38
2023-03-17T14:14:55.457Z,49.02
2023-03-17T14:17:28.474Z,49.23
2023-03-17T14:20:24.214Z,49.97
2023-03-17T14:22:57.890Z,50.14
2023-03-17T14:25:30.196Z,48.93
2023-03-17T14:28:02.830Z,48.99
2023-03-17T14:30:36.186Z,48.86
2023-03-17T14:33:08.895Z,48.69
2023-03-17T14:35:42.387Z,48.83
2023-03-17T14:38:22.131Z,48.42
2023-03-17T14:40:52.666Z,48.53
2023-03-17T14:43:25.701Z,48.33
2023-03-17T14:46:01.603Z,48.12
2023-03-17T14:48:34.952Z,48.48
2023-03-17T14:51:08.005Z,47.87
2023-03-17T14:53:41.697Z,48.78
2023-03-17T14:56:12.151Z,49.40
2023-03-17T14:58:47.952Z,50.11
2023-03-17T15:01:20.152Z,49.16
2023-03-17T15:03:59.067Z,48.54
2023-03-17T15:06:30.652Z,49.10
2023-03-17T15:09:02.825Z,50.06
2023-03-17T15:11:41.724Z,49.63
2023-03-17T15:14:21.556Z,50.31
2023-03-17T15:16:53.997Z,50.15
2023-03-17T15:19:28.898Z,50.33
2023-03-17T15:22:00.593Z,51.01
2023-03-17T15:24:44.187Z,51.25
2023-03-17T15:27:17.936Z,50.59
2023-03-17T15:29:50.174Z,50.91
2023-03-17T15:32:21.431Z,50.85
2023-03-17T15:34:52.259Z,50.94
2023-03-17T15:37:24.255Z,51.29
2023-03-17T15:39:55.858Z,51.44
2023-03-17T15:42:28.893Z,51.27
2023-03-17T15:45:02.770Z,52.88
2023-03-17T15:47:35.424Z,51.81
2023-03-17T15:50:15.796Z,50.83
2023-03-17T15:52:46.379Z,52.87
2023-03-17T15:55:23.650Z,51.98
2023-03-17T15:57:56.561Z,51.64
2023-03-17T16:00:31.736Z,52.08
2023-03-17T16:03:07.164Z,51.92
2023-03-17T16:05:38.823Z,52.85
2023-03-17T16:08:09.440Z,51.89
2023-03-17T16:10:39.062Z,52.19
2023-03-17T16:13:09.577Z,52.21
2023-03-17T16:15:44.274Z,51.90
2023-03-17T16:18:18.247Z,52.01
2023-03-17T16:20:50.125Z,51.62
2023-03-17T16:23:21.938Z,52.14
2023-03-17T16:25:53.964Z,53.26
2023-03-17T16:28:27.300Z,52.41
2023-03-17T16:31:01.818Z,52.35
2023-03-17T16:33:34.089Z,53.71
2023-03-17T16:36:04.031Z,54.01
2023-03-17T16:38:36.243Z,53.35
2023-03-17T16:41:11.067Z,53.40
2023-03-17T16:43:40.980Z,53.49
2023-03-17T16:46:15.058Z,53.08
2023-03-17T16:48:44.717Z,53.05
2023-03-17T16:51:14.329Z,53.78
2023-03-17T16:53:44.007Z,54.11
2023-03-17T16:56:18.717Z,53.79
2023-03-17T16:58:49.562Z,53.74
2023-03-17T17:01:24.460Z,54.14
2023-03-17T17:03:54.533Z,53.68
2023-03-17T17:06:26.135Z,54.52
2023-03-17T17:08:55.876Z,54.43
2023-03-17T17:11:25.502Z,53.92
2023-03-17T17:13:55.642Z,53.56
2023-03-17T17:16:31.532Z,52.31
2023-03-17T17:19:02.874Z,52.32
2023-03-17T17:21:33.985Z,52.33
2023-03-17T17:24:03.654Z,52.67
2023-03-17T17:26:33.255Z,52.69
2023-03-17T17:29:02.878Z,52.73
2023-03-17T17:31:35.247Z,52.87
2023-03-17T17:34:04.925Z,52.12
2023-03-17T17:36:35.325Z,52.18
2023-03-17T17:39:06.901Z,52.32
2023-03-17T17:41:37.147Z,53.22
2023-03-17T17:44:06.857Z,56.42
2023-03-17T17:46:39.246Z,57.70
2023-03-17T17:49:09.053Z,56.72
2023-03-17T17:51:38.669Z,57.72
2023-03-17T17:54:10.303Z,57.58
2023-03-17T17:56:46.766Z,57.39
2023-03-17T17:59:17.258Z,56.79
2023-03-17T18:01:49.425Z,56.44
2023-03-17T18:04:19.541Z,56.37
2023-03-17T18:06:50.047Z,57.06
2023-03-17T18:09:20.645Z,56.72
2023-03-17T18:11:50.327Z,56.44
2023-03-17T18:14:21.013Z,56.25
2023-03-17T18:16:54.277Z,56.53
2023-03-17T18:19:24.605Z,56.48
2023-03-17T18:21:54.317Z,55.68
2023-03-17T18:24:24.196Z,56.10
2023-03-17T18:26:53.874Z,55.56
2023-03-17T18:29:23.508Z,56.74
2023-03-17T18:31:57.427Z,56.26
2023-03-17T18:34:32.074Z,56.04
2023-03-17T18:37:04.116Z,56.53
2023-03-17T18:39:34.848Z,56.35
2023-03-17T18:42:05.397Z,55.41
2023-03-17T18:44:35.067Z,54.76
2023-03-17T18:47:07.497Z,53.68
2023-03-17T18:49:37.745Z,53.38
2023-03-17T18:52:07.434Z,53.22
2023-03-17T18:54:37.626Z,53.51
2023-03-17T18:57:07.308Z,54.11
2023-03-17T18:59:37.992Z,54.99
2023-03-17T19:02:11.692Z,54.86
2023-03-17T19:04:46.144Z,54.74
2023-03-17T19:07:16.486Z,54.78
2023-03-17T19:09:46.692Z,55.13
2023-03-17T19:12:16.934Z,54.85
2023-03-17T19:14:46.577Z,55.15
2023-03-17T19:17:19.277Z,54.89
2023-03-17T19:19:50.369Z,55.00
2023-03-17T19:22:20.025Z,54.65
2023-03-17T19:24:50.344Z,54.97
2023-03-17T19:27:20.733Z,55.24
2023-03-17T19:29:51.091Z,55.09
2023-03-17T19:32:23.342Z,55.24
2023-03-17T19:34:53.599Z,56.27
2023-03-17T19:37:23.833Z,56.08
2023-03-17T19:39:53.509Z,56.68
2023-03-17T19:42:23.178Z,56.77
2023-03-17T19:44:53.286Z,56.94
2023-03-17T19:47:25.758Z,57.45
2023-03-17T19:49:55.388Z,58.56
2023-03-17T19:52:27.824Z,60.50
2023-03-17T19:54:58.695Z,62.45
2023-03-17T19:57:28.497Z,63.24
2023-03-17T19:59:58.205Z,66.66
2023-03-17T20:02:30.435Z,66.90
2023-03-17T20:05:00.392Z,67.75
2023-03-17T20:07:30.180Z,66.84
2023-03-17T20:09:59.820Z,66.99
2023-03-17T20:12:29.502Z,66.15
2023-03-17T20:15:00.205Z,66.14
2023-03-17T20:17:32.631Z,66.63
2023-03-17T20:20:03.718Z,65.61
2023-03-17T20:22:33.578Z,65.87
2023-03-17T20:25:03.278Z,66.53
2023-03-17T20:27:35.903Z,66.45
2023-03-17T20:30:07.362Z,67.08
2023-03-17T20:32:39.851Z,68.12
2023-03-17T20:35:10.539Z,68.07
2023-03-17T20:37:40.219Z,67.59
2023-03-17T20:40:11.471Z,67.02
2023-03-17T20:42:41.642Z,66.33
2023-03-17T20:45:11.585Z,66.06
2023-03-17T20:47:43.818Z,65.98
2023-03-17T20:50:14.847Z,65.53
2023-03-17T20:52:45.705Z,65.13
2023-03-17T20:55:16.537Z,65.08
2023-03-17T20:57:48.698Z,64.72
2023-03-17T21:00:21.316Z,64.60
2023-03-17T21:02:53.888Z,64.28
2023-03-17T21:05:27.072Z,64.53
2023-03-17T21:07:57.672Z,64.46
2023-03-17T21:10:27.455Z,63.93
2023-03-17T21:12:57.356Z,63.62
2023-03-17T21:15:27.146Z,63.67
2023-03-17T21:17:59.411Z,63.32
2023-03-17T21:20:29.551Z,62.91
2023-03-17T21:23:00.445Z,62.85
2023-03-17T21:25:30.291Z,62.94
2023-03-17T21:28:00.196Z,62.11
2023-03-17T21:30:30.472Z,61.90
2023-03-17T21:33:03.300Z,62.02
2023-03-17T21:35:35.540Z,61.84
2023-03-17T21:38:05.229Z,62.31
2023-03-17T21:40:35.298Z,62.34
2023-03-17T21:43:05.769Z,62.74
2023-03-17T21:45:35.783Z,63.35
2023-03-17T21:48:08.143Z,62.91
2023-03-17T21:50:38.573Z,62.55
2023-03-17T21:53:09.309Z,62.13
2023-03-17T21:55:39.480Z,62.09
2023-03-17T21:58:09.184Z,62.01
2023-03-17T22:00:45.244Z,61.87
2023-03-17T22:03:18.399Z,62.03
2023-03-17T22:05:48.467Z,61.61
2023-03-17T22:08:18.390Z,62.25
2023-03-17T22:10:48.099Z,61.96
2023-03-17T22:13:17.773Z,62.35
2023-03-17T22:15:47.682Z,62.61
2023-03-17T22:18:20.045Z,62.63
2023-03-17T22:20:50.478Z,62.60
2023-03-17T22:23:20.634Z,62.72
2023-03-17T22:25:50.737Z,63.12
2023-03-17T22:28:21.031Z,63.29
2023-03-17T22:30:51.015Z,63.19
2023-03-17T22:33:23.370Z,62.84
2023-03-17T22:35:53.110Z,62.98
2023-03-17T22:38:24.861Z,62.69
2023-03-17T22:41:03.742Z,62.14
2023-03-17T22:43:33.415Z,62.22
2023-03-17T22:46:03.243Z,62.15
2023-03-17T22:48:36.071Z,61.87
2023-03-17T22:51:07.267Z,62.24
2023-03-17T22:53:37.791Z,62.99
2023-03-17T22:56:08.582Z,62.90
2023-03-17T22:58:38.588Z,62.74
2023-03-17T23:01:09.152Z,62.55
2023-03-17T23:03:42.132Z,62.51
2023-03-17T23:06:13.241Z,63.21
2023-03-17T23:08:45.846Z,63.74
2023-03-17T23:11:22.250Z,63.27
2023-03-17T23:13:53.047Z,63.39
2023-03-17T23:16:23.299Z,63.38
2023-03-17T23:18:55.716Z,63.55
2023-03-17T23:21:28.601Z,63.59
2023-03-17T23:23:58.552Z,63.40
2023-03-17T23:26:28.427Z,63.87
2023-03-17T23:28:58.103Z,64.12
2023-03-17T23:31:27.758Z,64.08
2023-03-17T23:33:59.985Z,64.06
2023-03-17T23:36:29.860Z,64.50
2023-03-17T23:38:59.502Z,64.45
2023-03-17T23:41:29.474Z,64.43
2023-03-17T23:43:59.062Z,64.43
2023-03-17T23:46:29.106Z,64.79
2023-03-17T23:49:01.483Z,64.85
2023-03-17T23:51:31.544Z,65.18
2023-03-17T23:54:01.171Z,64.74
2023-03-17T23:56:30.863Z,64.81
2023-03-17T23:59:00.504Z,64.14
